createdAt,value
2023-05-05T00:02:22.812Z,33.30
2023-05-05T00:05:11.434Z,33.40
2023-05-05T00:07:59.847Z,33.40
2023-05-05T00:10:50.492Z,33.40
2023-05-05T00:13:39.391Z,33.40
2023-05-05T00:16:29.509Z,33.40
2023-05-05T00:19:17.935Z,33.50
2023-05-05T00:22:06.345Z,33.50
2023-05-05T00:24:54.742Z,33.50
2023-05-05T00:27:43.227Z,33.50
2023-05-05T00:30:31.880Z,33.50
2023-05-05T00:33:22.054Z,33.50
2023-05-05T00:36:10.891Z,33.60
2023-05-05T00:38:59.577Z,33.60
2023-05-05T00:41:48.034Z,33.60
2023-05-05T00:44:42.346Z,33.60
2023-05-05T00:47:30.880Z,33.70
2023-05-05T00:50:24.768Z,33.60
2023-05-05T00:53:13.790Z,33.70
2023-05-05T00:56:02.483Z,33.70
2023-05-05T00:58:51.275Z,33.70
2023-05-05T01:01:41.664Z,33.70
2023-05-05T01:04:30.182Z,33.70
2023-05-05T01:07:42.417Z,33.70
2023-05-05T01:10:38.256Z,33.80
2023-05-05T01:13:31.982Z,33.70
2023-05-05T01:16:24.871Z,33.70
2023-05-05T01:19:25.156Z,33.70
2023-05-05T01:22:16.148Z,33.70
2023-05-05T01:25:26.980Z,33.70
2023-05-05T01:28:29.130Z,33.80
2023-05-05T01:31:28.290Z,33.80
2023-05-05T01:34:22.103Z,33.80
2023-05-05T01:37:16.342Z,33.80
2023-05-05T01:40:08.758Z,33.80
2023-05-05T01:42:59.951Z,33.80
2023-05-05T01:45:49.854Z,33.80
2023-05-05T01:48:41.793Z,33.80
2023-05-05T01:51:33.269Z,33.80
2023-05-05T01:54:23.871Z,33.90
2023-05-05T01:57:14.653Z,33.90
2023-05-05T02:00:05.195Z,33.90
2023-05-05T02:02:57.374Z,34.00
2023-05-05T02:05:48.798Z,34.00
2023-05-05T02:08:40.509Z,34.00
2023-05-05T02:11:30.196Z,34.00
2023-05-05T02:14:21.012Z,34.00
2023-05-05T02:17:10.195Z,34.10
2023-05-05T02:20:00.113Z,34.10
2023-05-05T02:22:48.645Z,34.10
2023-05-05T02:25:42.047Z,34.20
2023-05-05T02:28:36.377Z,34.20
2023-05-05T02:31:27.449Z,34.20
2023-05-05T02:34:21.183Z,34.20
2023-05-05T02:37:14.054Z,34.20
2023-05-05T02:40:05.972Z,34.30
2023-05-05T02:42:59.247Z,34.20
2023-05-05T02:45:47.711Z,34.30
2023-05-05T02:48:36.237Z,34.30
2023-05-05T02:51:24.647Z,34.30
2023-05-05T02:54:13.145Z,34.30
2023-05-05T02:57:02.500Z,34.30
2023-05-05T03:00:07.008Z,34.30
2023-05-05T03:03:06.948Z,34.40
2023-05-05T03:06:01.835Z,34.40
2023-05-05T03:08:57.380Z,34.40
2023-05-05T03:11:51.192Z,34.40
2023-05-05T03:14:43.406Z,34.40
2023-05-05T03:17:34.133Z,34.40
2023-05-05T03:20:23.916Z,34.40
2023-05-05T03:23:14.660Z,34.40
2023-05-05T03:26:03.170Z,34.40
2023-05-05T03:28:51.634Z,34.50
2023-05-05T03:31:40.123Z,34.50
2023-05-05T03:34:29.866Z,34.40
2023-05-05T03:37:18.306Z,34.50
2023-05-05T03:40:08.207Z,34.50
2023-05-05T03:42:56.915Z,34.60
2023-05-05T03:45:45.360Z,34.50
2023-05-05T03:48:34.229Z,34.60
2023-05-05T03:51:24.439Z,34.60
2023-05-05T03:54:12.878Z,34.60
2023-05-05T03:57:01.283Z,34.60
2023-05-05T03:59:49.661Z,34.60
2023-05-05T04:02:38.235Z,34.70
2023-05-05T04:05:27.384Z,34.70
2023-05-05T04:08:17.201Z,34.60
2023-05-05T04:11:05.698Z,34.70
2023-05-05T04:13:54.336Z,34.70
2023-05-05T04:16:42.736Z,34.70
2023-05-05T04:19:33.711Z,34.70
2023-05-05T04:22:22.183Z,34.80
2023-05-05T04:25:12.072Z,34.80
2023-05-05T04:28:00.515Z,34.80
2023-05-05T04:30:48.951Z,34.80
2023-05-05T04:33:37.435Z,34.70
2023-05-05T04:36:26.187Z,34.80
2023-05-05T04:39:14.600Z,34.80
2023-05-05T04:42:04.545Z,34.80
2023-05-05T04:44:52.918Z,34.80
2023-05-05T04:47:41.986Z,34.80
2023-05-05T04:50:30.435Z,34.80
2023-05-05T04:53:18.903Z,34.80
2023-05-05T04:56:07.802Z,34.70
2023-05-05T04:58:57.679Z,34.70
2023-05-05T05:01:46.901Z,34.70
2023-05-05T05:04:35.414Z,34.70
2023-05-05T05:07:24.113Z,34.70
2023-05-05T05:10:12.649Z,34.70
2023-05-05T05:13:01.455Z,34.60
2023-05-05T05:15:51.256Z,34.60
2023-05-05T05:18:39.672Z,35.00
2023-05-05T05:21:28.138Z,36.20
2023-05-05T05:24:16.560Z,36.10
2023-05-05T05:27:09.772Z,35.90
2023-05-05T05:29:58.656Z,35.90
2023-05-05T05:32:48.494Z,35.90
2023-05-05T05:35:36.931Z,35.80
2023-05-05T05:38:25.292Z,35.70
2023-05-05T05:41:13.785Z,35.60
2023-05-05T05:44:02.178Z,35.40
2023-05-05T05:46:50.637Z,35.00
2023-05-05T05:49:40.397Z,34.80
2023-05-05T05:52:28.796Z,34.60
2023-05-05T05:55:17.321Z,34.50
2023-05-05T05:58:06.177Z,34.30
2023-05-05T06:00:54.676Z,34.20
2023-05-05T06:03:43.337Z,34.00
2023-05-05T06:06:33.367Z,33.90
2023-05-05T06:09:22.081Z,33.80
2023-05-05T06:12:10.517Z,33.60
2023-05-05T06:14:58.900Z,33.40
2023-05-05T06:17:47.294Z,33.20
2023-05-05T06:20:35.759Z,33.10
2023-05-05T06:23:25.671Z,32.90
2023-05-05T06:26:14.246Z,32.70
2023-05-05T06:29:02.696Z,32.60
2023-05-05T06:31:51.323Z,32.40
2023-05-05T06:34:39.755Z,32.30
2023-05-05T06:37:28.163Z,32.00
2023-05-05T06:40:18.239Z,31.80
2023-05-05T06:43:06.643Z,31.70
2023-05-05T06:45:55.122Z,31.40
2023-05-05T06:48:43.655Z,31.10
2023-05-05T06:51:32.567Z,30.90
2023-05-05T06:54:20.981Z,30.70
2023-05-05T06:57:10.896Z,30.20
2023-05-05T06:59:59.333Z,29.70
2023-05-05T07:02:48.459Z,29.30
2023-05-05T07:05:36.993Z,28.90
2023-05-05T07:08:26.913Z,28.90
2023-05-05T07:11:15.595Z,29.00
2023-05-05T07:14:05.460Z,28.70
2023-05-05T07:16:53.970Z,28.80
2023-05-05T07:19:42.521Z,28.80
2023-05-05T07:22:31.100Z,28.70
2023-05-05T07:25:19.727Z,28.50
2023-05-05T07:28:08.158Z,28.40
2023-05-05T07:30:58.019Z,28.30
2023-05-05T07:33:46.465Z,28.30
2023-05-05T07:36:34.939Z,28.10
2023-05-05T07:39:24.574Z,28.00
2023-05-05T07:42:12.997Z,27.90
2023-05-05T07:45:01.469Z,27.80
2023-05-05T07:47:51.434Z,27.80
2023-05-05T07:50:39.910Z,27.80
2023-05-05T07:53:28.352Z,27.80
2023-05-05T07:56:16.736Z,27.80
2023-05-05T07:59:05.484Z,27.80
2023-05-05T08:01:55.015Z,27.70
2023-05-05T08:04:45.038Z,27.70
2023-05-05T08:07:33.600Z,27.60
2023-05-05T08:10:23.146Z,27.50
2023-05-05T08:13:11.780Z,27.40
2023-05-05T08:16:00.344Z,27.30
2023-05-05T08:18:49.030Z,27.20
2023-05-05T08:21:39.085Z,27.00
2023-05-05T08:24:27.618Z,26.90
2023-05-05T08:27:16.436Z,26.70
2023-05-05T08:30:05.867Z,26.60
2023-05-05T08:32:54.303Z,26.50
2023-05-05T08:35:44.461Z,26.30
2023-05-05T08:38:34.262Z,26.20
2023-05-05T08:41:22.621Z,26.00
2023-05-05T08:44:12.239Z,25.90
2023-05-05T08:47:02.235Z,25.70
2023-05-05T08:49:52.820Z,25.50
2023-05-05T08:52:44.363Z,25.40
2023-05-05T08:55:37.094Z,25.20
2023-05-05T08:58:28.753Z,25.10
2023-05-05T09:01:18.667Z,24.90
2023-05-05T09:04:09.148Z,24.80
2023-05-05T09:06:59.513Z,24.60
2023-05-05T09:09:48.388Z,24.50
2023-05-05T09:12:40.536Z,24.30
2023-05-05T09:15:29.117Z,24.00
2023-05-05T09:18:17.571Z,23.80
2023-05-05T09:21:21.114Z,23.60
2023-05-05T09:24:11.230Z,23.30
2023-05-05T09:27:01.583Z,23.30
2023-05-05T09:29:51.916Z,23.20
2023-05-05T09:32:49.104Z,22.90
2023-05-05T09:35:51.789Z,22.70
2023-05-05T09:38:40.382Z,22.60
2023-05-05T09:41:38.831Z,22.60
2023-05-05T09:44:36.186Z,22.30
2023-05-05T09:47:35.359Z,22.20
2023-05-05T09:50:24.211Z,22.00
2023-05-05T09:53:13.048Z,22.10
2023-05-05T09:56:02.293Z,22.00
2023-05-05T09:58:50.705Z,22.10
2023-05-05T10:01:40.002Z,21.90
2023-05-05T10:04:31.634Z,21.80
2023-05-05T10:07:25.209Z,21.70
2023-05-05T10:10:16.433Z,21.80
2023-05-05T10:13:05.409Z,21.80
2023-05-05T10:15:55.840Z,21.80
2023-05-05T10:18:47.752Z,21.80
2023-05-05T10:21:42.164Z,21.80
2023-05-05T10:24:38.699Z,21.80
2023-05-05T10:27:30.690Z,21.70
2023-05-05T10:30:23.744Z,21.60
2023-05-05T10:33:31.672Z,21.40
2023-05-05T10:36:22.014Z,21.10
2023-05-05T10:39:12.646Z,21.00
2023-05-05T10:42:03.518Z,20.90
2023-05-05T10:44:52.271Z,20.80
2023-05-05T10:47:41.477Z,20.60
2023-05-05T10:50:34.535Z,20.50
2023-05-05T10:53:25.352Z,20.40
2023-05-05T10:56:20.648Z,20.20
2023-05-05T10:59:42.854Z,20.20
2023-05-05T11:02:31.874Z,20.00
2023-05-05T11:05:21.660Z,20.00
2023-05-05T11:08:28.183Z,19.90
2023-05-05T11:11:18.092Z,19.80
2023-05-05T11:14:22.553Z,19.80
2023-05-05T11:17:47.819Z,19.60
2023-05-05T11:21:05.081Z,19.60
2023-05-05T11:23:53.654Z,19.60
2023-05-05T11:26:52.875Z,19.70
2023-05-05T11:30:06.825Z,19.90
2023-05-05T11:33:25.798Z,19.90
2023-05-05T11:36:15.697Z,19.80
2023-05-05T11:39:13.318Z,19.90
2023-05-05T11:42:25.377Z,20.10
2023-05-05T11:45:24.721Z,20.20
2023-05-05T11:48:26.398Z,20.30
2023-05-05T11:51:15.587Z,20.40
2023-05-05T11:54:04.972Z,20.50
2023-05-05T11:56:54.552Z,20.50
2023-05-05T11:59:55.883Z,20.60
2023-05-05T12:02:44.510Z,20.50
2023-05-05T12:05:36.274Z,20.50
2023-05-05T12:08:25.982Z,20.40
2023-05-05T12:11:14.420Z,20.60
2023-05-05T12:14:10.459Z,20.80
2023-05-05T12:17:01.666Z,20.80
2023-05-05T12:19:52.168Z,20.70
2023-05-05T12:22:40.843Z,20.60
2023-05-05T12:25:37.003Z,20.50
2023-05-05T12:28:25.502Z,20.40
2023-05-05T12:31:14.000Z,20.40
2023-05-05T12:34:04.311Z,20.40
2023-05-05T12:36:53.048Z,20.40
2023-05-05T12:39:41.449Z,20.30
2023-05-05T12:42:29.979Z,20.20
2023-05-05T12:45:18.667Z,20.20
2023-05-05T12:48:25.068Z,20.10
2023-05-05T12:51:17.481Z,19.90
2023-05-05T12:54:07.556Z,20.00
2023-05-05T12:56:56.401Z,20.00
2023-05-05T12:59:44.798Z,20.00
2023-05-05T13:02:35.897Z,20.00
2023-05-05T13:05:32.598Z,20.00
2023-05-05T13:08:22.767Z,20.00
2023-05-05T13:11:11.188Z,20.00
2023-05-05T13:13:59.731Z,20.00
2023-05-05T13:16:48.197Z,20.00
2023-05-05T13:19:41.946Z,20.10
2023-05-05T13:22:30.806Z,20.20
2023-05-05T13:25:21.038Z,20.10
2023-05-05T13:28:09.493Z,20.20
2023-05-05T13:30:59.099Z,20.30
2023-05-05T13:33:47.839Z,20.20
2023-05-05T13:36:36.531Z,20.30
2023-05-05T13:39:25.083Z,20.30
2023-05-05T13:42:14.859Z,20.40
2023-05-05T13:45:03.562Z,20.40
2023-05-05T13:47:51.993Z,20.50
2023-05-05T13:50:40.423Z,20.50
2023-05-05T13:53:29.031Z,20.50
2023-05-05T13:56:18.288Z,20.60
2023-05-05T13:59:08.160Z,20.70
2023-05-05T14:01:56.642Z,20.70
2023-05-05T14:04:45.142Z,20.80
2023-05-05T14:07:33.681Z,20.90
2023-05-05T14:10:22.193Z,21.00
2023-05-05T14:13:10.744Z,21.10
2023-05-05T14:16:00.650Z,21.20
2023-05-05T14:18:49.042Z,21.30
2023-05-05T14:21:37.499Z,21.50
2023-05-05T14:24:26.132Z,21.60
2023-05-05T14:27:14.621Z,21.70
2023-05-05T14:30:03.467Z,21.80
2023-05-05T14:32:53.306Z,21.90
2023-05-05T14:35:41.885Z,22.10
2023-05-05T14:38:30.394Z,22.20
2023-05-05T14:41:18.892Z,22.30
2023-05-05T14:44:07.402Z,22.50
2023-05-05T14:46:55.967Z,22.60
2023-05-05T14:49:46.006Z,22.70
2023-05-05T14:52:34.460Z,22.80
2023-05-05T14:55:23.414Z,22.90
2023-05-05T14:58:11.928Z,23.00
2023-05-05T15:01:00.639Z,23.10
2023-05-05T15:03:49.241Z,23.30
2023-05-05T15:06:39.218Z,23.40
2023-05-05T15:09:27.685Z,23.40
2023-05-05T15:12:16.213Z,23.60
2023-05-05T15:15:04.999Z,23.60
2023-05-05T15:17:53.528Z,23.70
2023-05-05T15:20:41.999Z,23.80
2023-05-05T15:23:31.880Z,23.90
2023-05-05T15:26:20.396Z,23.90
2023-05-05T15:29:08.836Z,24.00
2023-05-05T15:31:57.248Z,24.10
2023-05-05T15:34:47.214Z,24.20
2023-05-05T15:37:37.944Z,24.20
2023-05-05T15:40:27.840Z,24.30
2023-05-05T15:43:16.404Z,24.40
2023-05-05T15:46:04.853Z,24.50
2023-05-05T15:48:53.264Z,24.60
2023-05-05T15:51:41.874Z,24.60
2023-05-05T15:54:30.404Z,24.70
2023-05-05T15:57:20.223Z,24.80
2023-05-05T16:00:10.363Z,24.80
2023-05-05T16:02:58.793Z,24.90
2023-05-05T16:05:47.936Z,24.90
2023-05-05T16:08:36.972Z,25.00
2023-05-05T16:11:25.869Z,25.00
2023-05-05T16:14:15.745Z,25.10
2023-05-05T16:17:04.340Z,25.10
2023-05-05T16:19:52.918Z,25.10
2023-05-05T16:22:41.404Z,25.20
2023-05-05T16:25:29.829Z,25.40
2023-05-05T16:28:18.643Z,25.50
2023-05-05T16:31:10.777Z,25.60
2023-05-05T16:33:59.457Z,25.70
2023-05-05T16:36:47.868Z,25.70
2023-05-05T16:39:40.271Z,25.80
2023-05-05T16:42:28.813Z,25.80
2023-05-05T16:45:17.381Z,25.90
2023-05-05T16:48:09.184Z,26.00
2023-05-05T16:50:58.526Z,26.10
2023-05-05T16:53:48.902Z,26.20
2023-05-05T16:56:37.673Z,26.30
2023-05-05T16:59:26.171Z,26.40
2023-05-05T17:02:14.605Z,26.50
2023-05-05T17:05:04.682Z,26.50
2023-05-05T17:07:53.299Z,26.70
2023-05-05T17:10:42.232Z,26.80
2023-05-05T17:13:30.698Z,26.90
2023-05-05T17:16:19.247Z,27.00
2023-05-05T17:19:07.782Z,27.10
2023-05-05T17:21:57.717Z,27.20
2023-05-05T17:24:46.199Z,27.30
2023-05-05T17:27:34.702Z,27.40
2023-05-05T17:30:23.363Z,27.50
2023-05-05T17:33:11.862Z,27.60
2023-05-05T17:36:00.403Z,27.60
2023-05-05T17:38:50.248Z,28.30
2023-05-05T17:41:38.728Z,28.50
2023-05-05T17:44:27.199Z,28.70
2023-05-05T17:47:15.705Z,28.70
2023-05-05T17:50:05.036Z,29.00
2023-05-05T17:52:53.506Z,29.10
2023-05-05T17:55:46.183Z,29.20
2023-05-05T17:58:34.695Z,29.30
2023-05-05T18:01:23.376Z,29.40
2023-05-05T18:04:11.898Z,29.60
2023-05-05T18:07:00.305Z,29.70
2023-05-05T18:09:48.809Z,29.80
2023-05-05T18:12:38.797Z,29.90
2023-05-05T18:15:27.554Z,30.00
2023-05-05T18:18:16.010Z,30.00
2023-05-05T18:21:04.565Z,30.30
2023-05-05T18:23:57.292Z,30.40
2023-05-05T18:26:52.673Z,30.50
2023-05-05T18:29:42.553Z,30.80
2023-05-05T18:32:31.513Z,30.90
2023-05-05T18:35:20.184Z,31.10
2023-05-05T18:38:08.635Z,31.20
2023-05-05T18:40:57.278Z,31.20
2023-05-05T18:43:45.798Z,31.10
2023-05-05T18:46:36.186Z,31.10
2023-05-05T18:49:25.096Z,31.30
2023-05-05T18:52:13.624Z,31.30
2023-05-05T18:55:02.090Z,31.30
2023-05-05T18:57:50.527Z,31.60
2023-05-05T19:00:39.442Z,31.50
2023-05-05T19:03:29.300Z,31.60
2023-05-05T19:06:18.001Z,31.60
2023-05-05T19:09:06.493Z,31.60
2023-05-05T19:11:54.879Z,31.70
2023-05-05T19:14:43.450Z,31.90
2023-05-05T19:17:31.887Z,32.00
2023-05-05T19:20:22.000Z,31.70
2023-05-05T19:23:11.242Z,31.60
2023-05-05T19:25:59.765Z,31.60
2023-05-05T19:28:51.125Z,31.60
2023-05-05T19:31:39.600Z,31.60
2023-05-05T19:34:28.086Z,31.60
2023-05-05T19:37:17.986Z,31.60
2023-05-05T19:40:08.358Z,31.60
2023-05-05T19:42:57.825Z,31.60
2023-05-05T19:45:46.331Z,31.50
2023-05-05T19:48:34.945Z,31.60
2023-05-05T19:51:23.660Z,31.70
2023-05-05T19:54:13.545Z,31.70
2023-05-05T19:57:02.142Z,31.70
2023-05-05T19:59:50.628Z,31.70
2023-05-05T20:02:39.222Z,31.80
2023-05-05T20:05:27.802Z,31.80
2023-05-05T20:08:16.382Z,31.80
2023-05-05T20:11:07.741Z,31.80
2023-05-05T20:13:56.542Z,31.90
2023-05-05T20:16:45.083Z,31.90
2023-05-05T20:19:33.550Z,31.90
2023-05-05T20:22:22.008Z,32.00
2023-05-05T20:25:10.710Z,31.90
2023-05-05T20:28:00.820Z,31.90
2023-05-05T20:30:49.313Z,31.90
2023-05-05T20:33:37.985Z,32.00
2023-05-05T20:36:26.867Z,32.00
2023-05-05T20:39:16.591Z,32.00
2023-05-05T20:42:05.124Z,32.00
2023-05-05T20:44:54.978Z,32.00
2023-05-05T20:47:43.717Z,32.00
2023-05-05T20:50:32.426Z,32.00
2023-05-05T20:53:21.438Z,32.00
2023-05-05T20:56:09.951Z,32.10
2023-05-05T20:58:58.387Z,32.10
2023-05-05T21:01:48.267Z,32.10
2023-05-05T21:04:37.145Z,32.10
2023-05-05T21:07:25.622Z,32.10
2023-05-05T21:10:14.230Z,32.10
2023-05-05T21:13:02.894Z,32.10
2023-05-05T21:15:51.546Z,32.20
2023-05-05T21:18:41.367Z,32.20
2023-05-05T21:21:29.770Z,32.20
2023-05-05T21:24:18.225Z,32.20
2023-05-05T21:27:06.592Z,32.30
2023-05-05T21:29:55.080Z,32.30
2023-05-05T21:32:43.936Z,32.30
2023-05-05T21:35:33.773Z,32.30
2023-05-05T21:38:22.238Z,32.30
2023-05-05T21:41:10.721Z,32.40
2023-05-05T21:43:59.914Z,32.40
2023-05-05T21:46:48.488Z,32.40
2023-05-05T21:49:37.242Z,32.40
2023-05-05T21:52:28.866Z,32.40
2023-05-05T21:55:17.440Z,32.40
2023-05-05T21:58:06.576Z,32.40
2023-05-05T22:00:55.083Z,32.40
2023-05-05T22:03:44.020Z,32.40
2023-05-05T22:06:32.619Z,32.40
2023-05-05T22:09:22.431Z,32.50
2023-05-05T22:12:10.914Z,32.50
2023-05-05T22:14:59.297Z,32.50
2023-05-05T22:17:47.833Z,32.50
2023-05-05T22:20:36.992Z,32.50
2023-05-05T22:23:25.460Z,32.60
2023-05-05T22:26:15.255Z,32.60
2023-05-05T22:29:04.413Z,32.70
2023-05-05T22:31:52.977Z,32.80
2023-05-05T22:34:41.802Z,32.80
2023-05-05T22:37:30.352Z,32.90
2023-05-05T22:40:18.939Z,32.90
2023-05-05T22:43:08.818Z,33.00
2023-05-05T22:45:57.342Z,33.10
2023-05-05T22:48:46.201Z,33.20
2023-05-05T22:51:34.733Z,33.20
2023-05-05T22:54:23.159Z,33.30
2023-05-05T22:57:11.994Z,33.30
2023-05-05T23:00:01.836Z,33.40
2023-05-05T23:02:50.401Z,33.40
2023-05-05T23:05:38.812Z,33.50
2023-05-05T23:08:27.247Z,33.50
2023-05-05T23:11:15.810Z,33.60
2023-05-05T23:14:04.244Z,33.60
2023-05-05T23:16:54.270Z,33.70
2023-05-05T23:19:42.738Z,33.80
2023-05-05T23:22:31.190Z,33.80
2023-05-05T23:25:19.837Z,33.90
2023-05-05T23:28:08.293Z,33.90
2023-05-05T23:30:56.772Z,34.00
2023-05-05T23:33:46.669Z,34.10
2023-05-05T23:36:35.148Z,34.20
2023-05-05T23:39:23.767Z,34.20
2023-05-05T23:42:12.284Z,34.20
2023-05-05T23:45:00.948Z,34.40
2023-05-05T23:47:49.381Z,34.50
2023-05-05T23:50:39.638Z,34.60
2023-05-05T23:53:28.232Z,34.70
2023-05-05T23:56:16.905Z,34.80
2023-05-05T23:59:06.293Z,34.90
